sensor_id;sensor_type;location;lat;lon;timestamp;pressure;altitude;pressure_sealevel;temperature;humidity
68226;BME280;55045;49.410;11.030;2023-05-03T00:01:54;98957.56;;;7.02;100.00
68226;BME280;55045;49.410;11.030;2023-05-03T00:04:57;98947.41;;;6.96;100.00
68226;BME280;55045;49.410;11.030;2023-05-03T00:08:03;98948.91;;;7.06;100.00
68226;BME280;55045;49.410;11.030;2023-05-03T00:11:07;98963.13;;;7.24;100.00
68226;BME280;55045;49.410;11.030;2023-05-03T00:14:11;98958.22;;;7.12;100.00
68226;BME280;55045;49.410;11.030;2023-05-03T00:17:14;98950.97;;;6.89;100.00
68226;BME280;55045;49.410;11.030;2023-05-03T00:20:17;98952.75;;;6.87;100.00
68226;BME280;55045;49.410;11.030;2023-05-03T00:23:23;98949.63;;;6.70;100.00
68226;BME280;55045;49.410;11.030;2023-05-03T00:26:26;98951.72;;;6.51;100.00
68226;BME280;55045;49.410;11.030;2023-05-03T00:29:29;98950.81;;;6.52;100.00
68226;BME280;55045;49.410;11.030;2023-05-03T00:32:33;98946.56;;;6.51;100.00
68226;BME280;55045;49.410;11.030;2023-05-03T00:35:38;98951.91;;;6.40;100.00
68226;BME280;55045;49.410;11.030;2023-05-03T00:38:43;98946.19;;;6.23;100.00
68226;BME280;55045;49.410;11.030;2023-05-03T00:41:46;98944.31;;;6.32;100.00
68226;BME280;55045;49.410;11.030;2023-05-03T00:44:49;98936.78;;;6.20;100.00
68226;BME280;55045;49.410;11.030;2023-05-03T00:47:54;98939.56;;;6.10;100.00
68226;BME280;55045;49.410;11.030;2023-05-03T00:50:59;98930.19;;;6.05;100.00
68226;BME280;55045;49.410;11.030;2023-05-03T00:54:04;98937.13;;;6.00;100.00
68226;BME280;55045;49.410;11.030;2023-05-03T00:57:08;98925.50;;;5.76;100.00
68226;BME280;55045;49.410;11.030;2023-05-03T01:00:13;98929.56;;;5.91;100.00
68226;BME280;55045;49.410;11.030;2023-05-03T01:03:17;98920.47;;;5.69;100.00
68226;BME280;55045;49.410;11.030;2023-05-03T01:06:25;98936.78;;;5.68;100.00
68226;BME280;55045;49.410;11.030;2023-05-03T01:09:38;98881.66;;;5.27;100.00
68226;BME280;55045;49.410;11.030;2023-05-03T01:12:52;98940.31;;;5.62;100.00
68226;BME280;55045;49.410;11.030;2023-05-03T01:15:59;98939.59;;;5.53;100.00
68226;BME280;55045;49.410;11.030;2023-05-03T01:19:15;98927.88;;;5.90;100.00
68226;BME280;55045;49.410;11.030;2023-05-03T01:22:31;98926.75;;;5.49;100.00
68226;BME280;55045;49.410;11.030;2023-05-03T01:25:36;98916.22;;;6.19;100.00
68226;BME280;55045;49.410;11.030;2023-05-03T01:28:39;98925.16;;;5.41;100.00
68226;BME280;55045;49.410;11.030;2023-05-03T01:31:44;98911.63;;;5.85;100.00
68226;BME280;55045;49.410;11.030;2023-05-03T01:34:56;98884.00;;;5.41;100.00
68226;BME280;55045;49.410;11.030;2023-05-03T01:38:03;98915.47;;;5.58;100.00
68226;BME280;55045;49.410;11.030;2023-05-03T01:41:10;98917.59;;;5.33;100.00
68226;BME280;55045;49.410;11.030;2023-05-03T01:44:14;98920.09;;;5.36;100.00
68226;BME280;55045;49.410;11.030;2023-05-03T01:47:18;98914.13;;;5.90;100.00
68226;BME280;55045;49.410;11.030;2023-05-03T01:50:21;98921.13;;;5.25;100.00
68226;BME280;55045;49.410;11.030;2023-05-03T01:53:25;98924.50;;;5.28;100.00
68226;BME280;55045;49.410;11.030;2023-05-03T01:56:32;98920.78;;;5.47;100.00
68226;BME280;55045;49.410;11.030;2023-05-03T01:59:37;98926.00;;;5.41;100.00
68226;BME280;55045;49.410;11.030;2023-05-03T02:02:40;98919.59;;;5.11;100.00
68226;BME280;55045;49.410;11.030;2023-05-03T02:05:43;98924.41;;;5.36;100.00
68226;BME280;55045;49.410;11.030;2023-05-03T02:08:46;98921.22;;;5.17;100.00
68226;BME280;55045;49.410;11.030;2023-05-03T02:11:51;98929.03;;;5.09;100.00
68226;BME280;55045;49.410;11.030;2023-05-03T02:14:54;98927.28;;;5.73;100.00
68226;BME280;55045;49.410;11.030;2023-05-03T02:17:57;98934.31;;;5.00;100.00
68226;BME280;55045;49.410;11.030;2023-05-03T02:21:03;98933.16;;;5.24;100.00
68226;BME280;55045;49.410;11.030;2023-05-03T02:24:07;98927.69;;;4.82;100.00
68226;BME280;55045;49.410;11.030;2023-05-03T02:27:12;98936.91;;;4.99;100.00
68226;BME280;55045;49.410;11.030;2023-05-03T02:30:17;98946.28;;;5.03;100.00
68226;BME280;55045;49.410;11.030;2023-05-03T02:33:20;98934.31;;;5.00;100.00
68226;BME280;55045;49.410;11.030;2023-05-03T02:36:24;98937.59;;;5.10;100.00
68226;BME280;55045;49.410;11.030;2023-05-03T02:39:27;98933.91;;;5.29;100.00
68226;BME280;55045;49.410;11.030;2023-05-03T02:42:32;98930.00;;;5.04;100.00
68226;BME280;55045;49.410;11.030;2023-05-03T02:45:36;98930.28;;;4.81;100.00
68226;BME280;55045;49.410;11.030;2023-05-03T02:48:39;98923.63;;;4.65;100.00
68226;BME280;55045;49.410;11.030;2023-05-03T02:51:42;98923.63;;;4.63;100.00
68226;BME280;55045;49.410;11.030;2023-05-03T02:54:45;98931.44;;;4.54;100.00
68226;BME280;55045;49.410;11.030;2023-05-03T02:57:52;98926.34;;;4.49;100.00
68226;BME280;55045;49.410;11.030;2023-05-03T03:00:55;98931.56;;;4.43;100.00
68226;BME280;55045;49.410;11.030;2023-05-03T03:04:04;98935.84;;;4.43;100.00
68226;BME280;55045;49.410;11.030;2023-05-03T03:07:09;98937.69;;;4.30;100.00
68226;BME280;55045;49.410;11.030;2023-05-03T03:10:12;98939.47;;;4.23;100.00
68226;BME280;55045;49.410;11.030;2023-05-03T03:13:17;98939.50;;;4.17;100.00
68226;BME280;55045;49.410;11.030;2023-05-03T03:16:21;98922.09;;;4.50;100.00
68226;BME280;55045;49.410;11.030;2023-05-03T03:19:24;98925.00;;;4.15;100.00
68226;BME280;55045;49.410;11.030;2023-05-03T03:22:28;98925.53;;;4.46;100.00
68226;BME280;55045;49.410;11.030;2023-05-03T03:25:31;98929.41;;;4.02;100.00
68226;BME280;55045;49.410;11.030;2023-05-03T03:28:36;98923.56;;;3.83;100.00
68226;BME280;55045;49.410;11.030;2023-05-03T03:34:44;98929.50;;;3.90;100.00
68226;BME280;55045;49.410;11.030;2023-05-03T03:37:47;98933.69;;;3.98;100.00
68226;BME280;55045;49.410;11.030;2023-05-03T03:40:50;98928.06;;;4.50;100.00
68226;BME280;55045;49.410;11.030;2023-05-03T03:43:55;98938.16;;;3.76;100.00
68226;BME280;55045;49.410;11.030;2023-05-03T03:46:59;98947.47;;;3.90;100.00
68226;BME280;55045;49.410;11.030;2023-05-03T03:50:11;98949.16;;;3.94;100.00
68226;BME280;55045;49.410;11.030;2023-05-03T03:53:14;98955.16;;;3.93;100.00
68226;BME280;55045;49.410;11.030;2023-05-03T03:56:18;98955.28;;;3.73;100.00
68226;BME280;55045;49.410;11.030;2023-05-03T03:59:24;98959.50;;;3.83;100.00
68226;BME280;55045;49.410;11.030;2023-05-03T04:02:28;98961.25;;;3.76;100.00
68226;BME280;55045;49.410;11.030;2023-05-03T04:05:33;98964.47;;;4.03;100.00
68226;BME280;55045;49.410;11.030;2023-05-03T04:08:37;98963.78;;;3.81;100.00
68226;BME280;55045;49.410;11.030;2023-05-03T04:11:42;98960.38;;;3.81;100.00
68226;BME280;55045;49.410;11.030;2023-05-03T04:14:45;98965.50;;;3.81;100.00
68226;BME280;55045;49.410;11.030;2023-05-03T04:17:48;98974.13;;;3.70;100.00
68226;BME280;55045;49.410;11.030;2023-05-03T04:20:53;98972.38;;;3.75;100.00
68226;BME280;55045;49.410;11.030;2023-05-03T04:23:56;98968.78;;;3.98;100.00
68226;BME280;55045;49.410;11.030;2023-05-03T04:27:01;98978.91;;;4.15;100.00
68226;BME280;55045;49.410;11.030;2023-05-03T04:30:08;98985.97;;;3.90;100.00
68226;BME280;55045;49.410;11.030;2023-05-03T04:33:13;98989.97;;;4.23;100.00
68226;BME280;55045;49.410;11.030;2023-05-03T04:36:18;98987.66;;;4.80;100.00
68226;BME280;55045;49.410;11.030;2023-05-03T04:39:28;98989.00;;;4.34;100.00
68226;BME280;55045;49.410;11.030;2023-05-03T04:42:32;98992.28;;;4.50;100.00
68226;BME280;55045;49.410;11.030;2023-05-03T04:45:35;98999.03;;;4.57;100.00
68226;BME280;55045;49.410;11.030;2023-05-03T04:48:41;99004.13;;;4.65;100.00
68226;BME280;55045;49.410;11.030;2023-05-03T04:51:46;99013.44;;;4.75;100.00
68226;BME280;55045;49.410;11.030;2023-05-03T04:54:50;99012.38;;;4.95;100.00
68226;BME280;55045;49.410;11.030;2023-05-03T04:57:54;99009.44;;;5.25;100.00
68226;BME280;55045;49.410;11.030;2023-05-03T05:00:57;99016.94;;;5.40;100.00
68226;BME280;55045;49.410;11.030;2023-05-03T05:04:04;99017.88;;;5.35;100.00
68226;BME280;55045;49.410;11.030;2023-05-03T05:07:15;99023.81;;;5.38;100.00
68226;BME280;55045;49.410;11.030;2023-05-03T05:10:19;99025.50;;;5.42;100.00
68226;BME280;55045;49.410;11.030;2023-05-03T05:13:23;99017.88;;;5.35;100.00
68226;BME280;55045;49.410;11.030;2023-05-03T05:16:26;99026.13;;;5.58;100.00
68226;BME280;55045;49.410;11.030;2023-05-03T05:19:30;99020.06;;;5.64;100.00
68226;BME280;55045;49.410;11.030;2023-05-03T05:22:34;99022.56;;;5.68;100.00
68226;BME280;55045;49.410;11.030;2023-05-03T05:25:38;99019.69;;;5.93;100.00
68226;BME280;55045;49.410;11.030;2023-05-03T05:28:42;99015.59;;;5.76;100.00
68226;BME280;55045;49.410;11.030;2023-05-03T05:31:45;99016.78;;;6.11;100.00
68226;BME280;55045;49.410;11.030;2023-05-03T05:34:49;98982.03;;;5.83;100.00
68226;BME280;55045;49.410;11.030;2023-05-03T05:37:59;99015.13;;;6.59;100.00
68226;BME280;55045;49.410;11.030;2023-05-03T05:41:03;98971.50;;;5.99;100.00
68226;BME280;55045;49.410;11.030;2023-05-03T05:44:10;99010.19;;;6.93;100.00
68226;BME280;55045;49.410;11.030;2023-05-03T05:47:15;99013.44;;;6.58;100.00
68226;BME280;55045;49.410;11.030;2023-05-03T05:50:21;99001.44;;;6.56;100.00
68226;BME280;55045;49.410;11.030;2023-05-03T05:53:31;98984.03;;;6.69;100.00
68226;BME280;55045;49.410;11.030;2023-05-03T05:56:36;99007.59;;;6.93;100.00
68226;BME280;55045;49.410;11.030;2023-05-03T05:59:40;99010.41;;;7.25;100.00
68226;BME280;55045;49.410;11.030;2023-05-03T06:02:44;99000.53;;;7.46;100.00
68226;BME280;55045;49.410;11.030;2023-05-03T06:05:52;98934.78;;;7.22;100.00
68226;BME280;55045;49.410;11.030;2023-05-03T06:08:56;99009.13;;;8.21;100.00
68226;BME280;55045;49.410;11.030;2023-05-03T06:12:00;98965.78;;;7.97;100.00
68226;BME280;55045;49.410;11.030;2023-05-03T06:15:06;99001.44;;;8.54;100.00
68226;BME280;55045;49.410;11.030;2023-05-03T06:18:11;99005.63;;;8.58;100.00
68226;BME280;55045;49.410;11.030;2023-05-03T06:21:15;98987.03;;;9.07;100.00
68226;BME280;55045;49.410;11.030;2023-05-03T06:24:19;98991.72;;;8.62;100.00
68226;BME280;55045;49.410;11.030;2023-05-03T06:27:26;99006.63;;;8.52;100.00
68226;BME280;55045;49.410;11.030;2023-05-03T06:30:30;99007.31;;;8.91;100.00
68226;BME280;55045;49.410;11.030;2023-05-03T06:33:40;98964.00;;;8.34;100.00
68226;BME280;55045;49.410;11.030;2023-05-03T06:36:44;99001.03;;;8.69;100.00
68226;BME280;55045;49.410;11.030;2023-05-03T06:39:49;98969.59;;;8.52;100.00
68226;BME280;55045;49.410;11.030;2023-05-03T06:42:53;98986.94;;;8.81;100.00
68226;BME280;55045;49.410;11.030;2023-05-03T06:46:08;98994.44;;;9.19;100.00
68226;BME280;55045;49.410;11.030;2023-05-03T06:49:13;98992.03;;;9.13;100.00
68226;BME280;55045;49.410;11.030;2023-05-03T06:52:16;99000.81;;;9.67;100.00
68226;BME280;55045;49.410;11.030;2023-05-03T06:55:21;98990.84;;;9.25;100.00
68226;BME280;55045;49.410;11.030;2023-05-03T06:58:24;98968.28;;;9.29;100.00
68226;BME280;55045;49.410;11.030;2023-05-03T07:01:28;98943.44;;;9.79;100.00
68226;BME280;55045;49.410;11.030;2023-05-03T07:04:32;98992.22;;;9.37;100.00
68226;BME280;55045;49.410;11.030;2023-05-03T07:07:35;98938.25;;;9.79;100.00
68226;BME280;55045;49.410;11.030;2023-05-03T07:10:40;98939.94;;;9.80;100.00
68226;BME280;55045;49.410;11.030;2023-05-03T07:13:43;98986.50;;;10.37;100.00
68226;BME280;55045;49.410;11.030;2023-05-03T07:16:47;98921.03;;;10.56;100.00
68226;BME280;55045;49.410;11.030;2023-05-03T07:19:50;98955.47;;;10.84;100.00
68226;BME280;55045;49.410;11.030;2023-05-03T07:22:54;98965.59;;;10.67;100.00
68226;BME280;55045;49.410;11.030;2023-05-03T07:26:00;98974.03;;;10.97;100.00
68226;BME280;55045;49.410;11.030;2023-05-03T07:29:03;98961.56;;;10.33;100.00
68226;BME280;55045;49.410;11.030;2023-05-03T07:32:06;98962.06;;;10.93;100.00
68226;BME280;55045;49.410;11.030;2023-05-03T07:35:09;98964.75;;;10.66;100.00
68226;BME280;55045;49.410;11.030;2023-05-03T07:38:13;98965.63;;;10.90;100.00
68226;BME280;55045;49.410;11.030;2023-05-03T07:41:17;98961.69;;;10.55;100.00
68226;BME280;55045;49.410;11.030;2023-05-03T07:44:20;98965.72;;;11.11;100.00
68226;BME280;55045;49.410;11.030;2023-05-03T07:47:23;98951.69;;;11.16;100.00
68226;BME280;55045;49.410;11.030;2023-05-03T07:50:27;98954.41;;;11.59;100.00
68226;BME280;55045;49.410;11.030;2023-05-03T07:53:30;98944.06;;;11.57;100.00
68226;BME280;55045;49.410;11.030;2023-05-03T07:56:37;98946.13;;;11.49;100.00
68226;BME280;55045;49.410;11.030;2023-05-03T07:59:40;98944.44;;;11.48;100.00
68226;BME280;55045;49.410;11.030;2023-05-03T08:02:44;98942.16;;;12.06;100.00
68226;BME280;55045;49.410;11.030;2023-05-03T08:05:48;98937.19;;;11.11;100.00
68226;BME280;55045;49.410;11.030;2023-05-03T08:08:51;98927.31;;;11.42;100.00
68226;BME280;55045;49.410;11.030;2023-05-03T08:11:56;98927.06;;;12.14;100.00
68226;BME280;55045;49.410;11.030;2023-05-03T08:14:59;98936.69;;;12.12;100.00
68226;BME280;55045;49.410;11.030;2023-05-03T08:18:02;98935.31;;;11.81;100.00
68226;BME280;55045;49.410;11.030;2023-05-03T08:21:06;98935.59;;;12.38;100.00
68226;BME280;55045;49.410;11.030;2023-05-03T08:24:12;98932.53;;;12.49;100.00
68226;BME280;55045;49.410;11.030;2023-05-03T08:27:18;98929.41;;;12.61;100.00
68226;BME280;55045;49.410;11.030;2023-05-03T08:30:22;98929.56;;;12.77;100.00
68226;BME280;55045;49.410;11.030;2023-05-03T08:33:26;98929.47;;;12.39;100.00
68226;BME280;55045;49.410;11.030;2023-05-03T08:36:29;98935.16;;;13.07;100.00
68226;BME280;55045;49.410;11.030;2023-05-03T08:39:33;98931.94;;;13.02;100.00
68226;BME280;55045;49.410;11.030;2023-05-03T08:42:42;98939.66;;;13.03;100.00
68226;BME280;55045;49.410;11.030;2023-05-03T08:45:45;98926.44;;;12.89;100.00
68226;BME280;55045;49.410;11.030;2023-05-03T08:48:50;98934.13;;;13.48;100.00
68226;BME280;55045;49.410;11.030;2023-05-03T08:51:54;98926.53;;;12.67;100.00
68226;BME280;55045;49.410;11.030;2023-05-03T08:54:57;98926.84;;;13.74;100.00
68226;BME280;55045;49.410;11.030;2023-05-03T08:58:05;98935.53;;;13.55;100.00
68226;BME280;55045;49.410;11.030;2023-05-03T09:01:14;98940.13;;;13.87;100.00
68226;BME280;55045;49.410;11.030;2023-05-03T09:04:17;98929.47;;;14.08;100.00
68226;BME280;55045;49.410;11.030;2023-05-03T09:07:21;98860.59;;;12.66;100.00
68226;BME280;55045;49.410;11.030;2023-05-03T09:10:24;98940.47;;;13.62;100.00
68226;BME280;55045;49.410;11.030;2023-05-03T09:13:30;98928.84;;;13.86;100.00
68226;BME280;55045;49.410;11.030;2023-05-03T09:16:33;98933.94;;;14.06;100.00
68226;BME280;55045;49.410;11.030;2023-05-03T09:19:48;98929.63;;;14.05;100.00
68226;BME280;55045;49.410;11.030;2023-05-03T09:22:52;98926.88;;;13.91;100.00
68226;BME280;55045;49.410;11.030;2023-05-03T09:25:56;98916.97;;;13.98;100.00
68226;BME280;55045;49.410;11.030;2023-05-03T09:29:02;98924.59;;;14.02;100.00
68226;BME280;55045;49.410;11.030;2023-05-03T09:34:44;98923.22;;;13.76;100.00
68226;BME280;55045;49.410;11.030;2023-05-03T09:37:47;98910.69;;;13.84;100.00
68226;BME280;55045;49.410;11.030;2023-05-03T09:40:50;98919.03;;;14.08;100.00
68226;BME280;55045;49.410;11.030;2023-05-03T09:43:54;98914.50;;;13.77;100.00
68226;BME280;55045;49.410;11.030;2023-05-03T09:47:02;98906.59;;;13.79;100.00
68226;BME280;55045;49.410;11.030;2023-05-03T09:50:11;98850.22;;;14.28;100.00
68226;BME280;55045;49.410;11.030;2023-05-03T09:53:14;98917.50;;;14.39;100.00
68226;BME280;55045;49.410;11.030;2023-05-03T09:56:19;98914.75;;;14.59;98.92
68226;BME280;55045;49.410;11.030;2023-05-03T09:59:27;98909.19;;;13.79;100.00
68226;BME280;55045;49.410;11.030;2023-05-03T10:02:31;98913.16;;;13.51;100.00
68226;BME280;55045;49.410;11.030;2023-05-03T10:05:41;98923.25;;;13.40;100.00
68226;BME280;55045;49.410;11.030;2023-05-03T10:08:48;98910.94;;;14.15;100.00
68226;BME280;55045;49.410;11.030;2023-05-03T10:11:53;98905.00;;;14.63;100.00
68226;BME280;55045;49.410;11.030;2023-05-03T10:14:58;98902.72;;;15.21;98.04
68226;BME280;55045;49.410;11.030;2023-05-03T10:18:06;98899.00;;;15.41;96.23
68226;BME280;55045;49.410;11.030;2023-05-03T10:21:17;98893.72;;;14.62;94.27
68226;BME280;55045;49.410;11.030;2023-05-03T10:24:22;98890.34;;;14.43;96.45
68226;BME280;55045;49.410;11.030;2023-05-03T10:27:36;98884.25;;;15.09;94.92
68226;BME280;55045;49.410;11.030;2023-05-03T10:30:43;98885.78;;;14.97;96.88
68226;BME280;55045;49.410;11.030;2023-05-03T10:33:46;98882.81;;;14.37;96.01
68226;BME280;55045;49.410;11.030;2023-05-03T10:36:51;98872.78;;;14.29;97.86
68226;BME280;55045;49.410;11.030;2023-05-03T10:39:55;98878.53;;;14.19;98.50
68226;BME280;55045;49.410;11.030;2023-05-03T10:43:00;98869.59;;;13.90;98.30
68226;BME280;55045;49.410;11.030;2023-05-03T10:46:05;98872.88;;;13.93;98.69
68226;BME280;55045;49.410;11.030;2023-05-03T10:49:16;98869.63;;;13.88;98.08
68226;BME280;55045;49.410;11.030;2023-05-03T10:52:47;98868.94;;;14.36;98.49
68226;BME280;55045;49.410;11.030;2023-05-03T10:56:00;98871.31;;;14.41;95.37
68226;BME280;55045;49.410;11.030;2023-05-03T10:59:04;98865.13;;;15.40;94.53
68226;BME280;55045;49.410;11.030;2023-05-03T11:02:08;98865.41;;;14.55;96.20
68226;BME280;55045;49.410;11.030;2023-05-03T11:05:13;98873.25;;;14.20;96.21
68226;BME280;55045;49.410;11.030;2023-05-03T11:08:22;98852.50;;;14.34;95.66
68226;BME280;55045;49.410;11.030;2023-05-03T11:11:26;98872.06;;;15.25;92.25
68226;BME280;55045;49.410;11.030;2023-05-03T11:14:30;98798.75;;;15.12;91.77
68226;BME280;55045;49.410;11.030;2023-05-03T11:17:33;98854.88;;;15.05;91.36
68226;BME280;55045;49.410;11.030;2023-05-03T11:20:39;98854.16;;;15.02;91.08
68226;BME280;55045;49.410;11.030;2023-05-03T11:23:44;98853.50;;;15.45;90.88
68226;BME280;55045;49.410;11.030;2023-05-03T11:26:47;98856.34;;;15.41;88.51
68226;BME280;55045;49.410;11.030;2023-05-03T11:29:51;98843.25;;;16.02;89.45
68226;BME280;55045;49.410;11.030;2023-05-03T11:32:59;98845.31;;;15.36;91.31
68226;BME280;55045;49.410;11.030;2023-05-03T11:36:04;98849.94;;;15.62;90.11
68226;BME280;55045;49.410;11.030;2023-05-03T11:39:12;98821.84;;;15.04;92.14
68226;BME280;55045;49.410;11.030;2023-05-03T11:42:18;98844.03;;;14.80;91.97
68226;BME280;55045;49.410;11.030;2023-05-03T11:45:23;98843.75;;;15.33;90.63
68226;BME280;55045;49.410;11.030;2023-05-03T11:48:27;98837.81;;;15.45;90.30
68226;BME280;55045;49.410;11.030;2023-05-03T11:51:33;98842.28;;;15.27;92.13
68226;BME280;55045;49.410;11.030;2023-05-03T11:54:38;98841.47;;;16.03;89.39
68226;BME280;55045;49.410;11.030;2023-05-03T11:57:41;98839.13;;;15.84;83.88
68226;BME280;55045;49.410;11.030;2023-05-03T12:00:45;98839.63;;;15.59;86.14
68226;BME280;55045;49.410;11.030;2023-05-03T12:03:53;98844.59;;;15.02;86.22
68226;BME280;55045;49.410;11.030;2023-05-03T12:06:58;98844.59;;;15.02;87.83
68226;BME280;55045;49.410;11.030;2023-05-03T12:10:16;98826.19;;;15.35;93.57
68226;BME280;55045;49.410;11.030;2023-05-03T12:13:30;98826.75;;;16.16;86.75
68226;BME280;55045;49.410;11.030;2023-05-03T12:16:45;98831.00;;;15.43;88.21
68226;BME280;55045;49.410;11.030;2023-05-03T12:19:51;98823.09;;;15.74;87.02
68226;BME280;55045;49.410;11.030;2023-05-03T12:23:16;98823.97;;;16.48;84.63
68226;BME280;55045;49.410;11.030;2023-05-03T12:26:21;98829.56;;;16.84;82.47
68226;BME280;55045;49.410;11.030;2023-05-03T12:29:26;98824.16;;;15.86;87.18
68226;BME280;55045;49.410;11.030;2023-05-03T12:32:36;98813.34;;;15.62;86.29
68226;BME280;55045;49.410;11.030;2023-05-03T12:35:41;98812.53;;;16.20;84.46
68226;BME280;55045;49.410;11.030;2023-05-03T12:38:48;98829.19;;;16.48;86.19
68226;BME280;55045;49.410;11.030;2023-05-03T12:41:58;98814.03;;;16.67;88.74
68226;BME280;55045;49.410;11.030;2023-05-03T12:45:08;98816.91;;;16.05;82.86
68226;BME280;55045;49.410;11.030;2023-05-03T12:48:13;98804.97;;;16.73;83.10
68226;BME280;55045;49.410;11.030;2023-05-03T12:51:17;98804.25;;;16.70;84.49
68226;BME280;55045;49.410;11.030;2023-05-03T12:54:26;98804.03;;;16.17;81.97
68226;BME280;55045;49.410;11.030;2023-05-03T12:57:35;98798.16;;;16.41;79.95
68226;BME280;55045;49.410;11.030;2023-05-03T13:00:39;98796.06;;;16.61;80.40
68226;BME280;55045;49.410;11.030;2023-05-03T13:04:03;98798.31;;;15.96;82.54
68226;BME280;55045;49.410;11.030;2023-05-03T13:07:27;98792.41;;;16.63;81.70
68226;BME280;55045;49.410;11.030;2023-05-03T13:10:37;98785.59;;;16.32;80.70
68226;BME280;55045;49.410;11.030;2023-05-03T13:13:43;98712.97;;;15.93;79.96
68226;BME280;55045;49.410;11.030;2023-05-03T13:16:47;98778.34;;;15.49;80.43
68226;BME280;55045;49.410;11.030;2023-05-03T13:19:50;98767.09;;;16.07;84.95
68226;BME280;55045;49.410;11.030;2023-05-03T13:22:53;98755.03;;;16.47;80.99
68226;BME280;55045;49.410;11.030;2023-05-03T13:25:57;98750.81;;;16.73;76.62
68226;BME280;55045;49.410;11.030;2023-05-03T13:29:02;98758.31;;;16.22;78.12
68226;BME280;55045;49.410;11.030;2023-05-03T13:32:06;98758.88;;;16.27;79.47
68226;BME280;55045;49.410;11.030;2023-05-03T13:35:11;98753.06;;;16.51;76.07
68226;BME280;55045;49.410;11.030;2023-05-03T13:38:14;98747.03;;;16.07;76.10
68226;BME280;55045;49.410;11.030;2023-05-03T13:41:17;98735.63;;;16.64;84.27
68226;BME280;55045;49.410;11.030;2023-05-03T13:44:22;98737.56;;;17.16;75.14
68226;BME280;55045;49.410;11.030;2023-05-03T13:47:27;98738.38;;;17.04;73.57
68226;BME280;55045;49.410;11.030;2023-05-03T13:50:50;98731.88;;;16.96;76.05
68226;BME280;55045;49.410;11.030;2023-05-03T13:53:53;98725.13;;;16.92;75.05
68226;BME280;55045;49.410;11.030;2023-05-03T13:56:57;98735.88;;;17.42;76.25
68226;BME280;55045;49.410;11.030;2023-05-03T14:00:01;98728.25;;;17.12;70.97
68226;BME280;55045;49.410;11.030;2023-05-03T14:03:07;98722.47;;;17.07;78.28
68226;BME280;55045;49.410;11.030;2023-05-03T14:06:11;98728.13;;;17.13;71.38
68226;BME280;55045;49.410;11.030;2023-05-03T14:09:14;98719.25;;;16.89;73.06
68226;BME280;55045;49.410;11.030;2023-05-03T14:12:17;98727.72;;;17.59;72.20
68226;BME280;55045;49.410;11.030;2023-05-03T14:15:22;98718.22;;;17.31;71.34
68226;BME280;55045;49.410;11.030;2023-05-03T14:18:25;98719.59;;;17.37;70.97
68226;BME280;55045;49.410;11.030;2023-05-03T14:21:29;98718.44;;;17.28;70.50
68226;BME280;55045;49.410;11.030;2023-05-03T14:24:32;98726.34;;;17.53;71.17
68226;BME280;55045;49.410;11.030;2023-05-03T14:27:35;98721.34;;;17.23;69.92
68226;BME280;55045;49.410;11.030;2023-05-03T14:30:40;98725.84;;;17.61;69.14
68226;BME280;55045;49.410;11.030;2023-05-03T14:33:43;98710.94;;;16.82;71.60
68226;BME280;55045;49.410;11.030;2023-05-03T14:36:47;98725.38;;;17.02;67.59
68226;BME280;55045;49.410;11.030;2023-05-03T14:39:50;98713.53;;;16.41;68.32
68226;BME280;55045;49.410;11.030;2023-05-03T14:42:53;98707.47;;;17.09;72.20
68226;BME280;55045;49.410;11.030;2023-05-03T14:45:58;98716.13;;;17.36;67.41
68226;BME280;55045;49.410;11.030;2023-05-03T14:49:02;98709.69;;;16.47;66.48
68226;BME280;55045;49.410;11.030;2023-05-03T14:52:05;98696.91;;;17.23;66.84
68226;BME280;55045;49.410;11.030;2023-05-03T14:55:09;98694.72;;;17.17;64.47
68226;BME280;55045;49.410;11.030;2023-05-03T14:58:13;98703.91;;;17.10;66.54
68226;BME280;55045;49.410;11.030;2023-05-03T15:01:18;98696.16;;;17.08;65.74
68226;BME280;55045;49.410;11.030;2023-05-03T15:04:22;98700.84;;;16.62;65.78
68226;BME280;55045;49.410;11.030;2023-05-03T15:07:26;98696.09;;;16.95;64.25
68226;BME280;55045;49.410;11.030;2023-05-03T15:10:29;98700.31;;;16.98;65.25
68226;BME280;55045;49.410;11.030;2023-05-03T15:13:32;98696.16;;;16.81;62.96
68226;BME280;55045;49.410;11.030;2023-05-03T15:16:37;98675.25;;;16.94;66.99
68226;BME280;55045;49.410;11.030;2023-05-03T15:19:41;98701.75;;;16.89;65.35
68226;BME280;55045;49.410;11.030;2023-05-03T15:22:45;98695.91;;;17.38;62.20
68226;BME280;55045;49.410;11.030;2023-05-03T15:25:48;98659.00;;;16.89;61.36
68226;BME280;55045;49.410;11.030;2023-05-03T15:28:51;98688.09;;;17.11;62.13
68226;BME280;55045;49.410;11.030;2023-05-03T15:34:43;98666.50;;;16.39;63.83
68226;BME280;55045;49.410;11.030;2023-05-03T15:37:47;98685.81;;;17.19;65.03
68226;BME280;55045;49.410;11.030;2023-05-03T15:40:50;98681.78;;;17.14;58.72
68226;BME280;55045;49.410;11.030;2023-05-03T15:43:53;98689.28;;;16.93;59.53
68226;BME280;55045;49.410;11.030;2023-05-03T15:46:57;98694.50;;;16.66;55.91
68226;BME280;55045;49.410;11.030;2023-05-03T15:50:01;98691.66;;;16.83;56.63
68226;BME280;55045;49.410;11.030;2023-05-03T15:53:07;98683.94;;;16.94;59.50
68226;BME280;55045;49.410;11.030;2023-05-03T15:56:10;98685.47;;;16.84;59.16
68226;BME280;55045;49.410;11.030;2023-05-03T15:59:14;98672.88;;;16.35;59.06
68226;BME280;55045;49.410;11.030;2023-05-03T16:02:17;98678.78;;;16.25;56.86
68226;BME280;55045;49.410;11.030;2023-05-03T16:05:22;98684.22;;;16.77;57.68
68226;BME280;55045;49.410;11.030;2023-05-03T16:08:27;98669.44;;;16.76;61.93
68226;BME280;55045;49.410;11.030;2023-05-03T16:11:30;98676.41;;;16.34;56.76
68226;BME280;55045;49.410;11.030;2023-05-03T16:14:37;98671.06;;;16.50;58.25